sensor_id;sensor_type;location;lat;lon;timestamp;P1;durP1;ratioP1;P2;durP2;ratioP2
36211;SDS011;22247;48.586;13.492;2023-10-31T00:01:21;6.90;;;4.70;;
36211;SDS011;22247;48.586;13.492;2023-10-31T00:03:48;8.38;;;3.80;;
36211;SDS011;22247;48.586;13.492;2023-10-31T00:08:38;10.77;;;4.15;;
36211;SDS011;22247;48.586;13.492;2023-10-31T00:13:28;5.88;;;3.83;;
36211;SDS011;22247;48.586;13.492;2023-10-31T00:15:55;10.18;;;4.10;;
36211;SDS011;22247;48.586;13.492;2023-10-31T00:20:46;5.63;;;4.05;;
36211;SDS011;22247;48.586;13.492;2023-10-31T00:23:11;8.48;;;4.15;;
36211;SDS011;22247;48.586;13.492;2023-10-31T00:28:01;5.15;;;3.80;;
36211;SDS011;22247;48.586;13.492;2023-10-31T00:30:28;6.10;;;3.83;;
36211;SDS011;22247;48.586;13.492;2023-10-31T00:35:18;6.25;;;3.22;;
36211;SDS011;22247;48.586;13.492;2023-10-31T00:40:08;7.60;;;3.53;;
36211;SDS011;22247;48.586;13.492;2023-10-31T00:42:38;7.72;;;4.38;;
36211;SDS011;22247;48.586;13.492;2023-10-31T00:45:05;7.80;;;3.50;;
36211;SDS011;22247;48.586;13.492;2023-10-31T00:49:55;11.17;;;3.37;;
36211;SDS011;22247;48.586;13.492;2023-10-31T00:54:45;5.82;;;3.45;;
36211;SDS011;22247;48.586;13.492;2023-10-31T00:59:34;8.02;;;3.05;;
36211;SDS011;22247;48.586;13.492;2023-10-31T01:04:24;4.40;;;2.40;;
36211;SDS011;22247;48.586;13.492;2023-10-31T01:06:50;3.83;;;2.30;;
36211;SDS011;22247;48.586;13.492;2023-10-31T01:11:39;4.43;;;2.30;;
36211;SDS011;22247;48.586;13.492;2023-10-31T01:16:29;3.03;;;1.58;;
36211;SDS011;22247;48.586;13.492;2023-10-31T01:18:54;4.10;;;1.75;;
36211;SDS011;22247;48.586;13.492;2023-10-31T01:23:44;5.55;;;1.42;;
36211;SDS011;22247;48.586;13.492;2023-10-31T01:26:11;2.80;;;1.48;;
36211;SDS011;22247;48.586;13.492;2023-10-31T01:31:01;3.13;;;1.48;;
36211;SDS011;22247;48.586;13.492;2023-10-31T01:35:51;3.55;;;1.42;;
36211;SDS011;22247;48.586;13.492;2023-10-31T01:40:41;2.28;;;1.20;;
36211;SDS011;22247;48.586;13.492;2023-10-31T01:43:07;1.77;;;1.08;;
36211;SDS011;22247;48.586;13.492;2023-10-31T01:45:32;5.25;;;1.85;;
36211;SDS011;22247;48.586;13.492;2023-10-31T01:50:21;2.78;;;1.15;;
36211;SDS011;22247;48.586;13.492;2023-10-31T01:55:11;3.08;;;1.40;;
36211;SDS011;22247;48.586;13.492;2023-10-31T01:57:41;2.15;;;1.40;;
36211;SDS011;22247;48.586;13.492;2023-10-31T02:00:08;4.07;;;1.83;;
36211;SDS011;22247;48.586;13.492;2023-10-31T02:02:33;3.42;;;1.92;;
36211;SDS011;22247;48.586;13.492;2023-10-31T02:04:59;3.10;;;1.67;;
36211;SDS011;22247;48.586;13.492;2023-10-31T02:07:24;2.60;;;1.77;;
36211;SDS011;22247;48.586;13.492;2023-10-31T02:12:30;2.70;;;1.88;;
36211;SDS011;22247;48.586;13.492;2023-10-31T02:14:56;4.05;;;2.03;;
36211;SDS011;22247;48.586;13.492;2023-10-31T02:19:45;4.22;;;2.17;;
36211;SDS011;22247;48.586;13.492;2023-10-31T02:24:35;2.97;;;1.98;;
36211;SDS011;22247;48.586;13.492;2023-10-31T02:27:01;3.75;;;2.50;;
36211;SDS011;22247;48.586;13.492;2023-10-31T02:29:27;5.43;;;3.03;;
36211;SDS011;22247;48.586;13.492;2023-10-31T02:31:54;4.35;;;2.85;;
36211;SDS011;22247;48.586;13.492;2023-10-31T02:34:19;5.85;;;3.22;;
36211;SDS011;22247;48.586;13.492;2023-10-31T02:36:44;6.35;;;3.08;;
36211;SDS011;22247;48.586;13.492;2023-10-31T02:41:34;5.90;;;2.50;;
36211;SDS011;22247;48.586;13.492;2023-10-31T02:46:26;2.92;;;1.77;;
36211;SDS011;22247;48.586;13.492;2023-10-31T02:48:51;6.28;;;1.80;;
36211;SDS011;22247;48.586;13.492;2023-10-31T02:51:21;2.83;;;1.73;;
36211;SDS011;22247;48.586;13.492;2023-10-31T02:53:46;4.13;;;1.50;;
36211;SDS011;22247;48.586;13.492;2023-10-31T02:56:11;2.78;;;1.50;;
36211;SDS011;22247;48.586;13.492;2023-10-31T02:58:38;2.55;;;1.30;;
36211;SDS011;22247;48.586;13.492;2023-10-31T03:01:03;4.05;;;1.75;;
36211;SDS011;22247;48.586;13.492;2023-10-31T03:03:30;5.03;;;1.63;;
36211;SDS011;22247;48.586;13.492;2023-10-31T03:05:58;3.33;;;1.73;;
36211;SDS011;22247;48.586;13.492;2023-10-31T03:08:23;4.50;;;1.48;;
36211;SDS011;22247;48.586;13.492;2023-10-31T03:10:50;2.35;;;1.50;;
36211;SDS011;22247;48.586;13.492;2023-10-31T03:13:18;2.15;;;1.48;;
36211;SDS011;22247;48.586;13.492;2023-10-31T03:15:43;2.25;;;0.95;;
36211;SDS011;22247;48.586;13.492;2023-10-31T03:18:11;5.57;;;1.45;;
36211;SDS011;22247;48.586;13.492;2023-10-31T03:20:38;2.65;;;1.23;;
36211;SDS011;22247;48.586;13.492;2023-10-31T03:23:05;2.15;;;1.30;;
36211;SDS011;22247;48.586;13.492;2023-10-31T03:25:30;1.95;;;1.30;;
36211;SDS011;22247;48.586;13.492;2023-10-31T03:27:55;2.25;;;1.40;;
36211;SDS011;22247;48.586;13.492;2023-10-31T03:30:20;1.55;;;1.20;;
36211;SDS011;22247;48.586;13.492;2023-10-31T03:32:45;2.80;;;1.17;;
36211;SDS011;22247;48.586;13.492;2023-10-31T03:35:10;2.28;;;1.35;;
36211;SDS011;22247;48.586;13.492;2023-10-31T03:37:38;6.97;;;1.65;;
36211;SDS011;22247;48.586;13.492;2023-10-31T03:40:05;2.38;;;1.17;;
36211;SDS011;22247;48.586;13.492;2023-10-31T03:42:30;3.75;;;1.15;;
36211;SDS011;22247;48.586;13.492;2023-10-31T03:44:55;2.45;;;0.82;;
36211;SDS011;22247;48.586;13.492;2023-10-31T03:47:20;1.85;;;0.60;;
36211;SDS011;22247;48.586;13.492;2023-10-31T03:49:46;1.95;;;0.77;;
36211;SDS011;22247;48.586;13.492;2023-10-31T03:52:11;1.33;;;0.63;;
36211;SDS011;22247;48.586;13.492;2023-10-31T03:57:01;1.45;;;0.70;;
36211;SDS011;22247;48.586;13.492;2023-10-31T03:59:26;1.05;;;0.40;;
36211;SDS011;22247;48.586;13.492;2023-10-31T04:01:51;0.73;;;0.40;;
36211;SDS011;22247;48.586;13.492;2023-10-31T04:06:41;2.22;;;0.60;;
36211;SDS011;22247;48.586;13.492;2023-10-31T04:09:07;3.47;;;0.52;;
36211;SDS011;22247;48.586;13.492;2023-10-31T04:11:35;0.60;;;0.32;;
36211;SDS011;22247;48.586;13.492;2023-10-31T04:14:00;0.40;;;0.25;;
36211;SDS011;22247;48.586;13.492;2023-10-31T04:16:25;1.95;;;0.38;;
36211;SDS011;22247;48.586;13.492;2023-10-31T04:18:52;0.45;;;0.20;;
36211;SDS011;22247;48.586;13.492;2023-10-31T04:21:17;0.65;;;0.30;;
36211;SDS011;22247;48.586;13.492;2023-10-31T04:26:09;2.05;;;0.30;;
36211;SDS011;22247;48.586;13.492;2023-10-31T04:28:34;0.90;;;0.30;;
36211;SDS011;22247;48.586;13.492;2023-10-31T04:30:59;0.50;;;0.30;;
36211;SDS011;22247;48.586;13.492;2023-10-31T04:35:49;0.55;;;0.38;;
36211;SDS011;22247;48.586;13.492;2023-10-31T04:40:39;1.10;;;0.30;;
36211;SDS011;22247;48.586;13.492;2023-10-31T04:43:06;0.88;;;0.40;;
36211;SDS011;22247;48.586;13.492;2023-10-31T04:47:56;0.70;;;0.40;;
36211;SDS011;22247;48.586;13.492;2023-10-31T04:50:21;0.93;;;0.40;;
36211;SDS011;22247;48.586;13.492;2023-10-31T04:52:46;2.60;;;0.40;;
36211;SDS011;22247;48.586;13.492;2023-10-31T04:57:36;0.70;;;0.50;;
36211;SDS011;22247;48.586;13.492;2023-10-31T05:02:29;0.68;;;0.35;;
36211;SDS011;22247;48.586;13.492;2023-10-31T05:04:54;0.32;;;0.20;;
36211;SDS011;22247;48.586;13.492;2023-10-31T05:07:19;0.57;;;0.30;;
36211;SDS011;22247;48.586;13.492;2023-10-31T05:12:09;0.60;;;0.25;;
36211;SDS011;22247;48.586;13.492;2023-10-31T05:14:34;1.63;;;0.50;;
36211;SDS011;22247;48.586;13.492;2023-10-31T05:19:24;4.43;;;0.70;;
36211;SDS011;22247;48.586;13.492;2023-10-31T05:21:49;2.88;;;0.60;;
36211;SDS011;22247;48.586;13.492;2023-10-31T05:24:14;2.92;;;0.80;;
36211;SDS011;22247;48.586;13.492;2023-10-31T05:29:06;1.20;;;0.32;;
36211;SDS011;22247;48.586;13.492;2023-10-31T05:31:31;1.13;;;0.43;;
36211;SDS011;22247;48.586;13.492;2023-10-31T05:33:56;0.73;;;0.40;;
36211;SDS011;22247;48.586;13.492;2023-10-31T05:36:22;2.28;;;0.30;;
36211;SDS011;22247;48.586;13.492;2023-10-31T05:38:47;1.65;;;0.20;;
36211;SDS011;22247;48.586;13.492;2023-10-31T05:41:13;1.48;;;0.50;;
36211;SDS011;22247;48.586;13.492;2023-10-31T05:43:38;1.75;;;0.38;;
36211;SDS011;22247;48.586;13.492;2023-10-31T05:46:05;1.23;;;0.40;;
36211;SDS011;22247;48.586;13.492;2023-10-31T05:48:30;0.80;;;0.30;;
36211;SDS011;22247;48.586;13.492;2023-10-31T05:50:58;2.13;;;0.93;;
36211;SDS011;22247;48.586;13.492;2023-10-31T05:53:23;0.50;;;0.32;;
36211;SDS011;22247;48.586;13.492;2023-10-31T05:55:48;0.60;;;0.28;;
36211;SDS011;22247;48.586;13.492;2023-10-31T05:58:13;0.60;;;0.28;;
36211;SDS011;22247;48.586;13.492;2023-10-31T06:00:38;2.53;;;0.32;;
36211;SDS011;22247;48.586;13.492;2023-10-31T06:03:03;1.17;;;0.30;;
36211;SDS011;22247;48.586;13.492;2023-10-31T06:05:28;0.70;;;0.20;;
36211;SDS011;22247;48.586;13.492;2023-10-31T06:07:56;1.75;;;0.30;;
36211;SDS011;22247;48.586;13.492;2023-10-31T06:12:46;0.52;;;0.30;;
36211;SDS011;22247;48.586;13.492;2023-10-31T06:15:13;0.38;;;0.20;;
36211;SDS011;22247;48.586;13.492;2023-10-31T06:17:38;1.17;;;0.30;;
36211;SDS011;22247;48.586;13.492;2023-10-31T06:20:03;0.77;;;0.40;;
36211;SDS011;22247;48.586;13.492;2023-10-31T06:22:29;1.50;;;0.43;;
36211;SDS011;22247;48.586;13.492;2023-10-31T06:24:54;1.90;;;0.50;;
36211;SDS011;22247;48.586;13.492;2023-10-31T06:27:22;1.00;;;0.25;;
36211;SDS011;22247;48.586;13.492;2023-10-31T06:29:47;1.55;;;0.60;;
36211;SDS011;22247;48.586;13.492;2023-10-31T06:32:12;2.78;;;0.73;;
36211;SDS011;22247;48.586;13.492;2023-10-31T06:34:37;1.23;;;0.40;;
36211;SDS011;22247;48.586;13.492;2023-10-31T06:37:02;7.63;;;0.70;;
36211;SDS011;22247;48.586;13.492;2023-10-31T06:39:32;0.43;;;0.30;;
36211;SDS011;22247;48.586;13.492;2023-10-31T06:41:57;1.95;;;0.40;;
36211;SDS011;22247;48.586;13.492;2023-10-31T06:44:22;1.27;;;0.60;;
36211;SDS011;22247;48.586;13.492;2023-10-31T06:46:47;4.78;;;0.50;;
36211;SDS011;22247;48.586;13.492;2023-10-31T06:49:12;1.45;;;0.70;;
36211;SDS011;22247;48.586;13.492;2023-10-31T06:51:37;0.65;;;0.40;;
36211;SDS011;22247;48.586;13.492;2023-10-31T06:54:03;1.92;;;0.68;;
36211;SDS011;22247;48.586;13.492;2023-10-31T06:56:33;1.15;;;0.63;;
36211;SDS011;22247;48.586;13.492;2023-10-31T06:58:58;2.05;;;0.80;;
36211;SDS011;22247;48.586;13.492;2023-10-31T07:01:23;3.80;;;0.82;;
36211;SDS011;22247;48.586;13.492;2023-10-31T07:06:13;1.15;;;0.50;;
36211;SDS011;22247;48.586;13.492;2023-10-31T07:11:03;1.60;;;0.75;;
36211;SDS011;22247;48.586;13.492;2023-10-31T07:15:53;4.60;;;0.68;;
36211;SDS011;22247;48.586;13.492;2023-10-31T07:20:43;1.70;;;0.82;;
36211;SDS011;22247;48.586;13.492;2023-10-31T07:25:33;1.83;;;1.10;;
36211;SDS011;22247;48.586;13.492;2023-10-31T07:27:58;1.92;;;0.77;;
36211;SDS011;22247;48.586;13.492;2023-10-31T07:30:23;1.58;;;0.73;;
36211;SDS011;22247;48.586;13.492;2023-10-31T07:32:48;1.70;;;0.70;;
36211;SDS011;22247;48.586;13.492;2023-10-31T07:35:13;4.40;;;0.70;;
36211;SDS011;22247;48.586;13.492;2023-10-31T07:37:38;1.67;;;0.82;;
36211;SDS011;22247;48.586;13.492;2023-10-31T07:42:30;2.20;;;0.60;;
36211;SDS011;22247;48.586;13.492;2023-10-31T07:44:58;2.20;;;0.88;;
36211;SDS011;22247;48.586;13.492;2023-10-31T07:47:23;4.15;;;1.20;;
36211;SDS011;22247;48.586;13.492;2023-10-31T07:49:48;1.55;;;0.73;;
36211;SDS011;22247;48.586;13.492;2023-10-31T07:52:13;1.23;;;0.60;;
36211;SDS011;22247;48.586;13.492;2023-10-31T07:54:39;0.75;;;0.35;;
36211;SDS011;22247;48.586;13.492;2023-10-31T07:57:07;1.63;;;0.70;;
36211;SDS011;22247;48.586;13.492;2023-10-31T08:01:57;1.80;;;0.70;;
36211;SDS011;22247;48.586;13.492;2023-10-31T08:04:22;4.50;;;1.42;;
36211;SDS011;22247;48.586;13.492;2023-10-31T08:06:49;2.05;;;0.50;;
36211;SDS011;22247;48.586;13.492;2023-10-31T08:09:14;1.60;;;0.60;;
36211;SDS011;22247;48.586;13.492;2023-10-31T08:11:41;2.60;;;1.25;;
36211;SDS011;22247;48.586;13.492;2023-10-31T08:14:06;1.40;;;0.70;;
36211;SDS011;22247;48.586;13.492;2023-10-31T08:16:31;2.72;;;0.68;;
36211;SDS011;22247;48.586;13.492;2023-10-31T08:21:21;3.33;;;1.10;;
36211;SDS011;22247;48.586;13.492;2023-10-31T08:26:12;4.82;;;2.00;;
36211;SDS011;22247;48.586;13.492;2023-10-31T08:28:37;2.15;;;0.82;;
36211;SDS011;22247;48.586;13.492;2023-10-31T08:33:27;2.45;;;1.10;;
36211;SDS011;22247;48.586;13.492;2023-10-31T08:35:53;1.95;;;0.73;;
36211;SDS011;22247;48.586;13.492;2023-10-31T08:38:18;2.42;;;0.60;;
36211;SDS011;22247;48.586;13.492;2023-10-31T08:43:08;7.40;;;0.93;;
36211;SDS011;22247;48.586;13.492;2023-10-31T08:48:00;4.15;;;0.90;;
36211;SDS011;22247;48.586;13.492;2023-10-31T08:50:26;2.40;;;1.00;;
36211;SDS011;22247;48.586;13.492;2023-10-31T08:52:51;2.67;;;1.00;;
36211;SDS011;22247;48.586;13.492;2023-10-31T08:55:16;4.50;;;1.75;;
36211;SDS011;22247;48.586;13.492;2023-10-31T09:00:06;1.83;;;0.88;;
36211;SDS011;22247;48.586;13.492;2023-10-31T09:02:34;4.45;;;1.15;;
36211;SDS011;22247;48.586;13.492;2023-10-31T09:04:59;3.10;;;1.27;;
36211;SDS011;22247;48.586;13.492;2023-10-31T09:09:49;2.13;;;0.88;;
36211;SDS011;22247;48.586;13.492;2023-10-31T09:12:14;6.28;;;1.05;;
36211;SDS011;22247;48.586;13.492;2023-10-31T09:14:39;1.17;;;0.65;;
36211;SDS011;22247;48.586;13.492;2023-10-31T09:17:08;2.05;;;0.60;;
36211;SDS011;22247;48.586;13.492;2023-10-31T09:19:33;2.15;;;0.88;;
36211;SDS011;22247;48.586;13.492;2023-10-31T09:21:58;4.95;;;0.45;;
36211;SDS011;22247;48.586;13.492;2023-10-31T09:24:23;1.20;;;0.75;;
36211;SDS011;22247;48.586;13.492;2023-10-31T09:26:48;2.17;;;0.82;;
36211;SDS011;22247;48.586;13.492;2023-10-31T09:29:13;1.60;;;0.73;;
36211;SDS011;22247;48.586;13.492;2023-10-31T09:34:03;1.05;;;0.55;;
36211;SDS011;22247;48.586;13.492;2023-10-31T09:36:31;1.73;;;0.70;;
36211;SDS011;22247;48.586;13.492;2023-10-31T09:38:58;0.90;;;0.40;;
36211;SDS011;22247;48.586;13.492;2023-10-31T09:41:23;2.00;;;0.90;;
36211;SDS011;22247;48.586;13.492;2023-10-31T09:43:51;3.00;;;1.00;;
36211;SDS011;22247;48.586;13.492;2023-10-31T09:48:41;11.27;;;3.30;;
36211;SDS011;22247;48.586;13.492;2023-10-31T09:51:06;0.68;;;0.40;;
36211;SDS011;22247;48.586;13.492;2023-10-31T09:53:34;0.70;;;0.40;;
36211;SDS011;22247;48.586;13.492;2023-10-31T09:56:01;0.73;;;0.40;;
36211;SDS011;22247;48.586;13.492;2023-10-31T09:58:28;1.10;;;0.55;;
36211;SDS011;22247;48.586;13.492;2023-10-31T10:03:19;3.77;;;0.53;;
36211;SDS011;22247;48.586;13.492;2023-10-31T10:05:44;3.67;;;0.70;;
36211;SDS011;22247;48.586;13.492;2023-10-31T10:08:10;1.48;;;0.70;;
36211;SDS011;22247;48.586;13.492;2023-10-31T10:10:35;1.65;;;0.80;;
36211;SDS011;22247;48.586;13.492;2023-10-31T10:13:02;1.40;;;0.75;;
36211;SDS011;22247;48.586;13.492;2023-10-31T10:15:36;1.88;;;0.82;;
36211;SDS011;22247;48.586;13.492;2023-10-31T10:18:07;1.23;;;0.60;;
36211;SDS011;22247;48.586;13.492;2023-10-31T10:20:32;1.88;;;1.00;;
36211;SDS011;22247;48.586;13.492;2023-10-31T10:23:02;3.10;;;1.08;;
36211;SDS011;22247;48.586;13.492;2023-10-31T10:25:28;4.78;;;1.25;;
36211;SDS011;22247;48.586;13.492;2023-10-31T10:27:53;3.97;;;0.90;;
36211;SDS011;22247;48.586;13.492;2023-10-31T10:32:43;1.80;;;1.00;;
36211;SDS011;22247;48.586;13.492;2023-10-31T10:35:08;2.20;;;0.70;;
36211;SDS011;22247;48.586;13.492;2023-10-31T10:39:58;1.95;;;0.88;;
36211;SDS011;22247;48.586;13.492;2023-10-31T10:45:10;2.55;;;0.98;;
36211;SDS011;22247;48.586;13.492;2023-10-31T10:47:37;4.25;;;1.20;;
36211;SDS011;22247;48.586;13.492;2023-10-31T10:50:04;2.63;;;0.60;;
36211;SDS011;22247;48.586;13.492;2023-10-31T10:55:04;1.75;;;0.60;;
36211;SDS011;22247;48.586;13.492;2023-10-31T10:57:37;1.92;;;0.60;;
36211;SDS011;22247;48.586;13.492;2023-10-31T11:00:04;3.63;;;1.00;;
36211;SDS011;22247;48.586;13.492;2023-10-31T11:02:32;2.50;;;0.75;;
36211;SDS011;22247;48.586;13.492;2023-10-31T11:04:59;1.35;;;0.50;;
36211;SDS011;22247;48.586;13.492;2023-10-31T11:07:27;2.72;;;0.82;;
36211;SDS011;22247;48.586;13.492;2023-10-31T11:12:17;3.13;;;0.70;;
36211;SDS011;22247;48.586;13.492;2023-10-31T11:14:43;1.88;;;0.55;;
36211;SDS011;22247;48.586;13.492;2023-10-31T11:19:36;2.45;;;1.00;;
36211;SDS011;22247;48.586;13.492;2023-10-31T11:22:06;3.35;;;0.80;;
36211;SDS011;22247;48.586;13.492;2023-10-31T11:24:32;3.13;;;0.60;;
36211;SDS011;22247;48.586;13.492;2023-10-31T11:26:58;2.42;;;0.77;;
36211;SDS011;22247;48.586;13.492;2023-10-31T11:29:23;3.60;;;0.88;;
36211;SDS011;22247;48.586;13.492;2023-10-31T11:31:49;3.88;;;0.80;;
36211;SDS011;22247;48.586;13.492;2023-10-31T11:34:18;1.77;;;1.13;;
36211;SDS011;22247;48.586;13.492;2023-10-31T11:36:44;3.83;;;1.10;;
36211;SDS011;22247;48.586;13.492;2023-10-31T11:41:38;4.68;;;1.33;;
36211;SDS011;22247;48.586;13.492;2023-10-31T11:44:04;3.65;;;1.17;;
36211;SDS011;22247;48.586;13.492;2023-10-31T11:48:54;4.32;;;0.98;;
36211;SDS011;22247;48.586;13.492;2023-10-31T11:51:20;3.92;;;0.82;;
36211;SDS011;22247;48.586;13.492;2023-10-31T11:56:13;3.58;;;0.60;;
36211;SDS011;22247;48.586;13.492;2023-10-31T11:58:39;3.83;;;0.93;;
36211;SDS011;22247;48.586;13.492;2023-10-31T12:01:07;1.25;;;0.50;;
36211;SDS011;22247;48.586;13.492;2023-10-31T12:03:40;2.58;;;1.10;;
36211;SDS011;22247;48.586;13.492;2023-10-31T12:06:06;1.45;;;0.65;;
36211;SDS011;22247;48.586;13.492;2023-10-31T12:08:32;2.08;;;0.52;;
36211;SDS011;22247;48.586;13.492;2023-10-31T12:11:07;5.25;;;0.95;;
36211;SDS011;22247;48.586;13.492;2023-10-31T12:13:33;4.00;;;1.00;;
36211;SDS011;22247;48.586;13.492;2023-10-31T12:15:58;2.28;;;0.85;;
36211;SDS011;22247;48.586;13.492;2023-10-31T12:18:25;5.05;;;0.70;;
36211;SDS011;22247;48.586;13.492;2023-10-31T12:20:50;1.70;;;0.90;;
36211;SDS011;22247;48.586;13.492;2023-10-31T12:23:15;1.35;;;0.70;;
36211;SDS011;22247;48.586;13.492;2023-10-31T12:28:16;2.67;;;0.80;;
36211;SDS011;22247;48.586;13.492;2023-10-31T12:30:44;4.70;;;0.50;;
36211;SDS011;22247;48.586;13.492;2023-10-31T12:33:10;4.35;;;1.30;;
36211;SDS011;22247;48.586;13.492;2023-10-31T12:35:35;4.07;;;0.73;;
36211;SDS011;22247;48.586;13.492;2023-10-31T12:38:00;1.02;;;0.63;;
36211;SDS011;22247;48.586;13.492;2023-10-31T12:42:50;3.30;;;1.20;;
36211;SDS011;22247;48.586;13.492;2023-10-31T12:47:43;2.08;;;0.90;;
36211;SDS011;22247;48.586;13.492;2023-10-31T12:50:15;1.92;;;0.90;;
36211;SDS011;22247;48.586;13.492;2023-10-31T12:55:18;4.15;;;0.98;;
36211;SDS011;22247;48.586;13.492;2023-10-31T12:57:43;3.40;;;1.00;;
36211;SDS011;22247;48.586;13.492;2023-10-31T13:00:10;2.55;;;1.20;;
36211;SDS011;22247;48.586;13.492;2023-10-31T13:02:36;3.03;;;1.27;;
36211;SDS011;22247;48.586;13.492;2023-10-31T13:05:17;5.28;;;1.48;;
36211;SDS011;22247;48.586;13.492;2023-10-31T13:07:49;3.35;;;1.20;;
36211;SDS011;22247;48.586;13.492;2023-10-31T13:10:16;3.90;;;1.55;;
36211;SDS011;22247;48.586;13.492;2023-10-31T13:12:44;3.47;;;1.20;;
36211;SDS011;22247;48.586;13.492;2023-10-31T13:15:10;2.38;;;1.45;;
36211;SDS011;22247;48.586;13.492;2023-10-31T13:17:35;2.83;;;1.08;;
36211;SDS011;22247;48.586;13.492;2023-10-31T13:20:04;3.95;;;1.20;;
36211;SDS011;22247;48.586;13.492;2023-10-31T13:22:30;6.80;;;1.10;;
36211;SDS011;22247;48.586;13.492;2023-10-31T13:24:55;4.18;;;1.00;;
36211;SDS011;22247;48.586;13.492;2023-10-31T13:27:20;3.55;;;1.30;;
36211;SDS011;22247;48.586;13.492;2023-10-31T13:32:13;3.30;;;1.67;;
36211;SDS011;22247;48.586;13.492;2023-10-31T13:34:39;6.38;;;1.40;;
36211;SDS011;22247;48.586;13.492;2023-10-31T13:37:04;5.22;;;1.50;;
36211;SDS011;22247;48.586;13.492;2023-10-31T13:39:30;3.05;;;1.50;;
36211;SDS011;22247;48.586;13.492;2023-10-31T13:41:55;2.72;;;1.25;;
36211;SDS011;22247;48.586;13.492;2023-10-31T13:46:45;6.25;;;1.40;;
36211;SDS011;22247;48.586;13.492;2023-10-31T13:49:10;2.65;;;1.50;;
36211;SDS011;22247;48.586;13.492;2023-10-31T13:51:39;5.00;;;1.33;;
36211;SDS011;22247;48.586;13.492;2023-10-31T13:54:04;3.05;;;1.63;;
36211;SDS011;22247;48.586;13.492;2023-10-31T13:58:54;3.33;;;1.10;;
36211;SDS011;22247;48.586;13.492;2023-10-31T14:03:48;9.55;;;1.58;;
36211;SDS011;22247;48.586;13.492;2023-10-31T14:06:14;5.25;;;1.25;;
36211;SDS011;22247;48.586;13.492;2023-10-31T14:08:39;5.50;;;1.27;;
36211;SDS011;22247;48.586;13.492;2023-10-31T14:11:04;7.18;;;1.27;;
36211;SDS011;22247;48.586;13.492;2023-10-31T14:15:54;9.48;;;1.20;;
36211;SDS011;22247;48.586;13.492;2023-10-31T14:18:19;3.28;;;1.15;;
36211;SDS011;22247;48.586;13.492;2023-10-31T14:23:08;3.10;;;1.52;;
36211;SDS011;22247;48.586;13.492;2023-10-31T14:25:33;3.72;;;1.40;;
36211;SDS011;22247;48.586;13.492;2023-10-31T14:27:58;4.13;;;1.20;;
36211;SDS011;22247;48.586;13.492;2023-10-31T14:30:24;6.53;;;1.65;;
36211;SDS011;22247;48.586;13.492;2023-10-31T14:32:49;6.45;;;1.33;;
36211;SDS011;22247;48.586;13.492;2023-10-31T14:37:41;4.47;;;1.30;;
36211;SDS011;22247;48.586;13.492;2023-10-31T14:40:09;5.47;;;1.85;;
36211;SDS011;22247;48.586;13.492;2023-10-31T14:42:34;8.65;;;2.30;;
36211;SDS011;22247;48.586;13.492;2023-10-31T14:44:59;7.18;;;2.45;;
36211;SDS011;22247;48.586;13.492;2023-10-31T14:49:49;5.45;;;1.23;;
36211;SDS011;22247;48.586;13.492;2023-10-31T14:52:14;3.47;;;1.20;;
36211;SDS011;22247;48.586;13.492;2023-10-31T14:54:40;8.73;;;1.40;;
36211;SDS011;22247;48.586;13.492;2023-10-31T14:57:08;4.78;;;1.38;;
36211;SDS011;22247;48.586;13.492;2023-10-31T14:59:35;8.50;;;1.55;;
36211;SDS011;22247;48.586;13.492;2023-10-31T15:02:00;4.07;;;1.50;;
36211;SDS011;22247;48.586;13.492;2023-10-31T15:04:25;5.22;;;1.63;;
36211;SDS011;22247;48.586;13.492;2023-10-31T15:06:51;7.45;;;2.00;;
36211;SDS011;22247;48.586;13.492;2023-10-31T15:09:16;3.70;;;1.33;;
36211;SDS011;22247;48.586;13.492;2023-10-31T15:11:43;3.72;;;1.23;;
36211;SDS011;22247;48.586;13.492;2023-10-31T15:14:08;5.03;;;1.35;;
36211;SDS011;22247;48.586;13.492;2023-10-31T15:16:33;6.88;;;2.15;;
36211;SDS011;22247;48.586;13.492;2023-10-31T15:19:00;6.45;;;1.52;;
36211;SDS011;22247;48.586;13.492;2023-10-31T15:23:50;5.80;;;1.92;;
36211;SDS011;22247;48.586;13.492;2023-10-31T15:28:41;5.65;;;1.85;;
36211;SDS011;22247;48.586;13.492;2023-10-31T15:31:06;4.80;;;2.10;;
36211;SDS011;22247;48.586;13.492;2023-10-31T15:33:31;4.43;;;2.63;;
36211;SDS011;22247;48.586;13.492;2023-10-31T15:35:56;7.03;;;2.63;;
36211;SDS011;22247;48.586;13.492;2023-10-31T15:38:23;9.18;;;2.42;;
36211;SDS011;22247;48.586;13.492;2023-10-31T15:40:51;3.95;;;2.20;;
36211;SDS011;22247;48.586;13.492;2023-10-31T15:45:41;7.37;;;1.50;;
36211;SDS011;22247;48.586;13.492;2023-10-31T15:48:08;4.93;;;1.60;;
36211;SDS011;22247;48.586;13.492;2023-10-31T15:50:36;5.30;;;2.15;;
36211;SDS011;22247;48.586;13.492;2023-10-31T15:53:02;5.05;;;2.22;;
36211;SDS011;22247;48.586;13.492;2023-10-31T15:55:27;6.38;;;2.22;;
36211;SDS011;22247;48.586;13.492;2023-10-31T16:00:17;6.63;;;2.65;;
36211;SDS011;22247;48.586;13.492;2023-10-31T16:05:07;6.07;;;2.05;;
36211;SDS011;22247;48.586;13.492;2023-10-31T16:10:00;7.75;;;2.28;;
36211;SDS011;22247;48.586;13.492;2023-10-31T16:12:25;7.78;;;2.40;;
36211;SDS011;22247;48.586;13.492;2023-10-31T16:17:15;5.95;;;2.67;;
36211;SDS011;22247;48.586;13.492;2023-10-31T16:19:40;4.45;;;2.05;;
36211;SDS011;22247;48.586;13.492;2023-10-31T16:22:08;5.25;;;2.30;;
36211;SDS011;22247;48.586;13.492;2023-10-31T16:24:36;6.82;;;2.20;;
36211;SDS011;22247;48.586;13.492;2023-10-31T16:27:01;6.57;;;2.28;;
36211;SDS011;22247;48.586;13.492;2023-10-31T16:29:26;11.10;;;2.08;;
36211;SDS011;22247;48.586;13.492;2023-10-31T16:34:17;8.77;;;1.73;;
36211;SDS011;22247;48.586;13.492;2023-10-31T16:36:43;8.63;;;2.70;;
36211;SDS011;22247;48.586;13.492;2023-10-31T16:41:34;6.57;;;2.30;;
36211;SDS011;22247;48.586;13.492;2023-10-31T16:46:24;8.60;;;2.50;;
36211;SDS011;22247;48.586;13.492;2023-10-31T16:48:50;7.13;;;2.60;;
36211;SDS011;22247;48.586;13.492;2023-10-31T16:51:20;3.63;;;2.25;;
36211;SDS011;22247;48.586;13.492;2023-10-31T16:53:50;7.13;;;2.53;;
36211;SDS011;22247;48.586;13.492;2023-10-31T16:56:15;6.32;;;2.67;;
36211;SDS011;22247;48.586;13.492;2023-10-31T16:58:41;8.50;;;2.65;;
36211;SDS011;22247;48.586;13.492;2023-10-31T17:01:09;10.43;;;2.30;;
36211;SDS011;22247;48.586;13.492;2023-10-31T17:03:34;6.00;;;3.38;;
36211;SDS011;22247;48.586;13.492;2023-10-31T17:06:02;6.47;;;2.60;;
36211;SDS011;22247;48.586;13.492;2023-10-31T17:08:30;5.60;;;2.38;;
36211;SDS011;22247;48.586;13.492;2023-10-31T17:10:56;10.45;;;2.40;;
36211;SDS011;22247;48.586;13.492;2023-10-31T17:13:23;7.90;;;2.17;;
36211;SDS011;22247;48.586;13.492;2023-10-31T17:15:50;9.52;;;2.55;;
36211;SDS011;22247;48.586;13.492;2023-10-31T17:20:40;5.38;;;1.80;;
36211;SDS011;22247;48.586;13.492;2023-10-31T17:23:05;7.75;;;2.25;;
36211;SDS011;22247;48.586;13.492;2023-10-31T17:25:30;5.65;;;1.90;;
36211;SDS011;22247;48.586;13.492;2023-10-31T17:27:55;8.00;;;2.28;;
36211;SDS011;22247;48.586;13.492;2023-10-31T17:32:48;19.30;;;8.98;;
36211;SDS011;22247;48.586;13.492;2023-10-31T17:37:38;26.95;;;12.55;;
36211;SDS011;22247;48.586;13.492;2023-10-31T17:42:30;31.38;;;13.25;;
36211;SDS011;22247;48.586;13.492;2023-10-31T17:44:58;24.27;;;11.88;;
36211;SDS011;22247;48.586;13.492;2023-10-31T17:47:23;30.38;;;13.38;;
36211;SDS011;22247;48.586;13.492;2023-10-31T17:49:48;26.80;;;13.88;;
36211;SDS011;22247;48.586;13.492;2023-10-31T17:54:41;16.00;;;7.60;;
36211;SDS011;22247;48.586;13.492;2023-10-31T17:57:08;18.42;;;7.05;;
36211;SDS011;22247;48.586;13.492;2023-10-31T17:59:33;16.30;;;7.32;;